Saguaro National Park, AZ

4:55 PM MST on September 19, 2014 (GMT -0700)
UA WRRC WEATHER | Change Station
CLOSE
Current Station
Personal Weather Station
Location: Tucson, AZ
Elevation: 2431 ft
Nearby Weather Stations
Active Advisory: Areal Flood Warning Active Notice: Record Report

Elev 2431 ft 32.23 °N, 110.94 °W | Updated 14 minutes ago

Partly Cloudy
Partly Cloudy
88.6 °F
Feels Like 92 °F
N
6.0
Wind Variable Wind from West
Gusts 10.0 mph

Today
High -- | Low -- °F
--% Chance of Precip.
Yesterday
High -- | Low -- °F
Precip. -- in
6:10 AM 6:24 PM
Waning Crescent, 16% visible
Pressure 29.72 in
Visibility 10.0 miles
Clouds Clear
Heat Index 92 °F
Dew Point 67 °F
Humidity 49%
Rainfall 0.48 in
Snow Depth 0 in , 0 in , 1 in
UV 3 out of 12
Pollen 6.20 out of 12
Air Quality Not available.
Flu Activity Not available.
METAR KDMA 192258Z AUTO VRB01KT 10SM CLR 31/17 A2985 RMK AO2 SLP064 T03060169 $

More Conditions Fewer Conditions

Pressure 29.72 in
Visibility 10.0 miles
Clouds Clear
Heat Index 92 °F
Dew Point 67 °F
Humidity 49%
Rainfall 0.48 in
Snow Depth 0 in , 0 in , 1 in
UV 3 out of 12
Pollen 6.20 out of 12
Air Quality Not available.
Flu Activity Not available.
METAR KDMA 192258Z AUTO VRB01KT 10SM CLR 31/17 A2985 RMK AO2 SLP064 T03060169 $

More Conditions Fewer Conditions

10-Day Weather Forecast

Almanac

Astronomy

Sep. 19, 2014 Rise Set
Actual Time 6:10 AM MST 6:24 PM MST
Civil Twilight 5:45 AM MST 6:48 PM MST
Nautical Twilight 5:17 AM MST 7:17 PM MST
Astronomical Twilight 4:48 AM MST 7:46 PM MST
Moon 2:10 AM MST 3:45 PM MST
Length of Visible Light 13h 03m
Length of Day
12h 14m
Tomorrow will be 1m 57s shorter.
Waning Crescent, 16% of the Moon is Illuminated
Today
Waning Crescent
Sep 24
New
Oct 1
First Quarter
Oct 8
Full
Oct 15
Last Quarter

Today's Extremes

State Highs State Lows

Community

WunderPhotos

Upload Photos

1,754,730 photos uploaded!

Nearby

Snow Depth

Station Depth Elevation
Snowslide Canyon 0 in 9730 ft
Beaver Head 0 in 7990 ft
Workman Creek 1 in 6900 ft
White Horse Lake 0 in 7180 ft

Earthquake Activity

City Distance Mag. Time & Date
No recent earthquake activity has been reported nearby.
Minimum magnitude displayed is 2.5.

Coastal Water Temperatures

Place Temperature
No Stations Reporting

Nearby Weather Stations